Time;durP1;ratioP1;P1;durP2;ratioP2;P2;SDS_P1;SDS_P2;PMS_P1;PMS_P2;Temp;Humidity;BMP_temperature;BMP_pressure;BME280_temperature;BME280_humidity;BME280_pressure;Samples;Min_cycle;Max_cycle;Signal;HPM_P1;HPM_P2
2021/04/06 00:02:17;;;;;;;10.37;7.27;;;0.70;99.90;;;;;;5008850;28;20469;-51
2021/04/06 00:04:47;;;;;;;9.87;6.73;;;0.70;99.90;;;;;;5007563;28;20480;-48
2021/04/06 00:07:19;;;;;;;15.90;8.00;;;0.70;99.90;;;;;;5015880;28;20499;-44
2021/04/06 00:09:51;;;;;;;12.00;6.80;;;0.80;99.90;;;;;;5016706;28;20752;-48
2021/04/06 00:12:22;;;;;;;9.23;6.80;;;0.80;99.90;;;;;;5015143;28;20578;-48
2021/04/06 00:14:52;;;;;;;10.60;6.43;;;0.80;99.90;;;;;;5013222;28;20871;-47
2021/04/06 00:17:20;;;;;;;7.17;6.47;;;0.80;99.90;;;;;;5019414;28;20446;-51
2021/04/06 00:19:50;;;;;;;15.23;8.70;;;0.80;99.90;;;;;;5018349;28;20542;-50
2021/04/06 00:22:19;;;;;;;12.50;7.60;;;0.80;99.90;;;;;;5015705;28;20446;-45
2021/04/06 00:24:53;;;;;;;15.30;10.00;;;0.80;99.90;;;;;;5013152;28;20468;-48
2021/04/06 00:27:22;;;;;;;14.70;9.23;;;0.90;99.90;;;;;;5016722;28;20477;-50
2021/04/06 00:29:53;;;;;;;13.03;10.97;;;0.90;99.90;;;;;;5017258;28;20475;-46
2021/04/06 00:32:22;;;;;;;15.23;12.03;;;0.90;99.90;;;;;;5014423;28;21002;-50
2021/04/06 00:34:52;;;;;;;13.77;11.43;;;1.00;99.90;;;;;;5015613;28;20483;-47
2021/04/06 00:37:19;;;;;;;15.83;12.17;;;0.90;99.90;;;;;;5016541;28;20468;-51
2021/04/06 00:39:47;;;;;;;14.43;11.17;;;0.90;99.90;;;;;;5016905;28;20469;-54
2021/04/06 00:42:18;;;;;;;18.00;12.77;;;0.90;99.90;;;;;;5016860;28;20472;-46
2021/04/06 00:44:49;;;;;;;19.13;12.17;;;0.90;99.90;;;;;;5016044;28;21051;-47
2021/04/06 00:47:23;;;;;;;16.10;12.73;;;1.00;99.90;;;;;;5015258;28;20460;-44
2021/04/06 00:49:52;;;;;;;19.43;12.67;;;0.90;99.90;;;;;;5012059;28;20490;-50
2021/04/06 00:52:20;;;;;;;26.73;13.40;;;1.00;99.90;;;;;;5017554;28;20980;-48
2021/04/06 00:54:54;;;;;;;20.10;12.23;;;1.00;99.90;;;;;;5015577;28;20472;-51
2021/04/06 00:57:28;;;;;;;17.37;11.50;;;0.90;99.90;;;;;;5012278;28;20434;-47
2021/04/06 01:00:16;;;;;;;16.20;9.70;;;1.00;99.90;;;;;;5014884;28;20478;-46
2021/04/06 01:02:59;;;;;;;17.67;9.50;;;0.90;99.90;;;;;;5012612;28;20563;-45
2021/04/06 01:05:27;;;;;;;10.60;7.57;;;1.00;99.90;;;;;;5014015;28;20492;-51
2021/04/06 01:07:56;;;;;;;11.73;7.43;;;1.00;99.90;;;;;;5006848;28;20440;-49
2021/04/06 01:10:24;;;;;;;14.03;8.90;;;1.00;99.90;;;;;;5014179;28;20464;-49
2021/04/06 01:12:51;;;;;;;13.17;7.67;;;1.00;99.90;;;;;;5017867;28;20495;-55
2021/04/06 01:15:29;;;;;;;12.00;9.03;;;1.00;99.90;;;;;;5017531;28;20485;-46
2021/04/06 01:17:57;;;;;;;13.27;8.13;;;1.10;99.90;;;;;;5009939;28;20555;-48
2021/04/06 01:20:26;;;;;;;21.27;8.63;;;1.10;99.90;;;;;;5017235;28;20827;-49
2021/04/06 01:22:57;;;;;;;12.07;7.07;;;1.10;99.90;;;;;;5018749;28;20453;-50
2021/04/06 01:25:29;;;;;;;12.23;7.50;;;1.10;99.90;;;;;;5014666;28;20924;-49
2021/04/06 01:28:03;;;;;;;10.23;7.43;;;1.10;99.90;;;;;;5018237;28;20474;-53
2021/04/06 01:30:43;;;;;;;13.00;8.27;;;1.10;99.90;;;;;;5015081;28;20471;-52
2021/04/06 01:33:10;;;;;;;11.13;7.90;;;1.20;99.90;;;;;;5014640;28;20470;-48
2021/04/06 01:35:37;;;;;;;14.60;6.80;;;1.20;99.90;;;;;;5017463;28;20447;-45
2021/04/06 01:38:04;;;;;;;11.43;5.80;;;1.20;99.90;;;;;;5017009;28;20463;-51
2021/04/06 01:40:32;;;;;;;15.10;7.13;;;1.30;99.90;;;;;;5018514;28;20467;-52
2021/04/06 01:42:59;;;;;;;13.80;6.10;;;1.20;99.90;;;;;;5014034;28;20949;-50
2021/04/06 01:45:29;;;;;;;17.00;8.00;;;1.20;99.90;;;;;;5017806;28;20530;-50
2021/04/06 01:47:56;;;;;;;14.87;8.53;;;1.20;99.90;;;;;;5016703;28;20541;-55
2021/04/06 01:50:22;;;;;;;17.87;9.33;;;1.20;99.90;;;;;;5016894;28;20472;-49
2021/04/06 01:52:51;;;;;;;18.80;9.80;;;1.20;99.90;;;;;;5017757;28;20498;-49
2021/04/06 01:55:29;;;;;;;18.77;11.00;;;1.20;99.90;;;;;;5016770;28;20606;-47
2021/04/06 01:57:57;;;;;;;25.17;11.30;;;1.30;99.90;;;;;;5016686;28;20911;-49
2021/04/06 02:00:32;;;;;;;21.60;11.80;;;1.20;99.90;;;;;;5017284;28;20472;-49
2021/04/06 02:03:04;;;;;;;16.17;10.27;;;1.30;99.90;;;;;;5012166;28;20480;-52
2021/04/06 02:05:31;;;;;;;15.10;8.97;;;1.20;99.90;;;;;;5009026;28;20490;-54
2021/04/06 02:08:03;;;;;;;14.33;9.50;;;1.20;99.90;;;;;;5013245;28;20468;-55
2021/04/06 02:10:30;;;;;;;11.93;8.40;;;1.20;99.90;;;;;;5016520;28;20467;-55
2021/04/06 02:13:06;;;;;;;18.53;9.50;;;1.10;99.90;;;;;;5014554;28;20879;-56
2021/04/06 02:15:32;;;;;;;16.67;9.17;;;1.10;99.90;;;;;;5015808;28;20551;-51
2021/04/06 02:17:59;;;;;;;13.07;8.90;;;1.20;99.90;;;;;;5016819;28;20468;-50
2021/04/06 02:20:27;;;;;;;16.70;8.30;;;1.20;99.90;;;;;;5016861;28;20909;-48
2021/04/06 02:22:55;;;;;;;16.30;10.27;;;1.20;99.90;;;;;;5005904;28;20457;-52
2021/04/06 02:25:22;;;;;;;15.60;9.80;;;1.20;99.90;;;;;;5016228;28;20562;-50
2021/04/06 02:27:48;;;;;;;21.23;10.20;;;1.10;99.90;;;;;;5017418;28;20461;-53
2021/04/06 02:30:17;;;;;;;21.73;10.90;;;1.20;99.90;;;;;;5015588;28;20806;-53
2021/04/06 02:32:43;;;;;;;20.23;10.73;;;1.00;99.90;;;;;;5017433;28;20499;-48
2021/04/06 02:35:13;;;;;;;19.60;11.37;;;1.10;99.90;;;;;;5016572;28;20464;-49
2021/04/06 02:37:42;;;;;;;12.70;9.33;;;1.00;99.90;;;;;;5016885;28;20531;-52
2021/04/06 02:40:15;;;;;;;17.30;10.20;;;1.10;99.90;;;;;;5016808;28;20594;-51
2021/04/06 02:42:43;;;;;;;20.53;9.97;;;1.10;99.90;;;;;;5016024;28;20475;-50
2021/04/06 02:45:14;;;;;;;17.83;10.10;;;1.10;99.90;;;;;;5017164;28;20471;-54
2021/04/06 02:47:44;;;;;;;23.50;12.00;;;1.10;99.90;;;;;;5016492;28;20777;-54
2021/04/06 02:50:12;;;;;;;25.40;11.30;;;1.20;99.90;;;;;;5016616;28;20784;-48
2021/04/06 02:52:40;;;;;;;24.87;13.73;;;1.10;99.90;;;;;;5017094;28;20925;-52
2021/04/06 02:55:10;;;;;;;19.23;11.37;;;1.10;99.90;;;;;;5016107;28;21048;-53
2021/04/06 02:57:44;;;;;;;18.03;10.73;;;1.10;99.90;;;;;;5017056;28;20479;-51
2021/04/06 03:00:31;;;;;;;18.93;11.27;;;1.10;99.90;;;;;;5015496;28;20468;-45
2021/04/06 03:03:00;;;;;;;20.17;9.73;;;1.10;99.90;;;;;;5008987;28;20534;-47
2021/04/06 03:05:30;;;;;;;17.80;9.47;;;1.10;99.90;;;;;;5013182;28;20492;-45
2021/04/06 03:07:57;;;;;;;12.83;7.17;;;1.00;99.90;;;;;;5016866;28;20484;-46
2021/04/06 03:10:24;;;;;;;8.50;6.27;;;1.00;99.90;;;;;;5015670;28;20537;-45
2021/04/06 03:12:51;;;;;;;10.27;5.37;;;1.00;99.90;;;;;;5016489;28;20915;-47
2021/04/06 03:15:24;;;;;;;7.40;6.60;;;1.00;99.90;;;;;;5015632;28;20496;-44
2021/04/06 03:17:54;;;;;;;9.80;6.03;;;1.00;99.90;;;;;;5015383;28;20468;-50
2021/04/06 03:20:22;;;;;;;11.97;5.73;;;0.90;99.90;;;;;;5016091;28;20476;-47
2021/04/06 03:22:49;;;;;;;11.70;6.63;;;0.90;99.90;;;;;;5016457;28;20446;-45
2021/04/06 03:25:16;;;;;;;10.30;7.40;;;0.90;99.90;;;;;;5016259;28;20467;-45
2021/04/06 03:27:47;;;;;;;10.13;7.80;;;0.90;99.90;;;;;;5016523;28;20854;-45
2021/04/06 03:30:15;;;;;;;11.33;8.30;;;0.80;99.90;;;;;;5014566;28;20905;-53
2021/04/06 03:32:42;;;;;;;10.33;7.10;;;0.80;99.90;;;;;;5015418;28;20495;-45
2021/04/06 03:35:09;;;;;;;16.00;8.87;;;0.80;99.90;;;;;;5015880;28;20527;-49
2021/04/06 03:37:37;;;;;;;12.57;7.17;;;0.80;99.90;;;;;;5008325;28;20471;-54
2021/04/06 03:40:10;;;;;;;16.03;8.20;;;0.80;99.90;;;;;;5013342;28;20472;-46
2021/04/06 03:42:39;;;;;;;15.00;8.27;;;0.80;99.90;;;;;;5014610;28;20467;-45
2021/04/06 03:45:08;;;;;;;16.50;8.50;;;0.80;99.90;;;;;;5016241;28;20472;-49
2021/04/06 03:47:57;;;;;;;12.47;8.17;;;0.80;99.90;;;;;;5012420;28;20464;-45
2021/04/06 03:50:37;;;;;;;15.87;8.90;;;0.80;99.90;;;;;;5014434;28;20475;-50
2021/04/06 03:53:07;;;;;;;11.30;6.77;;;0.80;99.90;;;;;;5014178;28;20491;-49
2021/04/06 03:55:34;;;;;;;12.80;6.67;;;0.70;99.90;;;;;;5012860;28;20475;-47
2021/04/06 03:58:07;;;;;;;11.70;6.33;;;0.80;99.90;;;;;;5016118;28;20468;-48
2021/04/06 04:00:35;;;;;;;8.83;6.43;;;0.80;99.90;;;;;;5017287;28;20468;-53
2021/04/06 04:03:02;;;;;;;10.20;6.70;;;0.90;99.90;;;;;;5014359;28;20470;-46
2021/04/06 04:05:28;;;;;;;6.53;5.10;;;0.80;99.90;;;;;;5016439;28;20460;-50
2021/04/06 04:07:55;;;;;;;7.80;5.37;;;0.80;99.90;;;;;;5019956;28;20514;-47
2021/04/06 04:10:23;;;;;;;11.80;5.37;;;0.70;99.90;;;;;;5018211;28;20460;-50
2021/04/06 04:12:50;;;;;;;7.80;6.53;;;0.80;99.90;;;;;;5013185;28;20488;-52
2021/04/06 04:15:17;;;;;;;9.30;6.90;;;0.70;99.90;;;;;;5018050;28;20615;-46
2021/04/06 04:17:47;;;;;;;10.60;7.13;;;0.70;99.90;;;;;;5020289;28;20502;-54
2021/04/06 04:20:15;;;;;;;16.67;9.93;;;0.70;99.90;;;;;;5018768;28;20468;-52
2021/04/06 04:22:42;;;;;;;19.50;10.60;;;0.70;99.90;;;;;;5018472;28;20476;-53
2021/04/06 04:25:09;;;;;;;20.20;10.50;;;0.70;99.90;;;;;;5020209;28;20493;-50
2021/04/06 04:27:38;;;;;;;19.03;13.80;;;0.70;99.90;;;;;;5019320;28;20522;-51
2021/04/06 04:30:06;;;;;;;27.70;13.00;;;0.70;99.90;;;;;;5019663;28;20472;-53
2021/04/06 04:32:32;;;;;;;21.50;15.30;;;0.70;99.90;;;;;;5017466;28;20460;-53
2021/04/06 04:34:59;;;;;;;24.00;14.70;;;0.80;99.90;;;;;;5019799;28;20464;-51
2021/04/06 04:37:25;;;;;;;27.57;16.10;;;0.80;99.90;;;;;;5019584;28;20765;-50
2021/04/06 04:39:52;;;;;;;25.53;16.23;;;0.80;99.90;;;;;;5019385;28;20463;-47
2021/04/06 04:42:18;;;;;;;22.97;16.47;;;0.80;99.90;;;;;;5019755;28;20464;-48
2021/04/06 04:44:46;;;;;;;28.00;17.50;;;0.80;99.90;;;;;;5019981;28;20518;-51
2021/04/06 04:47:15;;;;;;;25.97;18.83;;;0.80;99.90;;;;;;5019491;28;20464;-50
2021/04/06 04:49:41;;;;;;;26.83;17.27;;;0.80;99.90;;;;;;5019283;28;20471;-50
2021/04/06 04:52:08;;;;;;;42.83;20.27;;;0.80;99.90;;;;;;5018749;28;20464;-50
2021/04/06 04:54:34;;;;;;;32.10;20.33;;;0.80;99.90;;;;;;5019881;28;20499;-50
2021/04/06 04:57:04;;;;;;;16.67;10.50;;;0.80;99.90;;;;;;5018361;28;20464;-50
2021/04/06 04:59:31;;;;;;;9.53;5.67;;;0.70;99.90;;;;;;5018867;28;20464;-50
2021/04/06 05:01:58;;;;;;;13.30;4.40;;;0.50;99.90;;;;;;5019042;28;20472;-52
2021/04/06 05:04:28;;;;;;;8.50;4.90;;;0.40;99.90;;;;;;5010851;28;20472;-50
2021/04/06 05:06:54;;;;;;;7.70;4.23;;;0.30;99.90;;;;;;5018430;28;20488;-54
2021/04/06 05:09:26;;;;;;;6.13;4.57;;;0.30;99.90;;;;;;5016126;28;20468;-53
2021/04/06 05:11:54;;;;;;;7.60;3.50;;;0.30;99.90;;;;;;5019786;28;20782;-47
2021/04/06 05:14:21;;;;;;;4.30;2.90;;;0.20;99.90;;;;;;5014736;28;20539;-50
2021/04/06 05:16:47;;;;;;;7.03;3.40;;;0.20;99.90;;;;;;5018279;28;20491;-47
2021/04/06 05:19:15;;;;;;;9.20;3.60;;;0.20;99.90;;;;;;5018486;28;20471;-53
2021/04/06 05:21:44;;;;;;;6.93;3.57;;;0.10;99.90;;;;;;5019076;28;20494;-49
2021/04/06 05:24:11;;;;;;;8.17;3.63;;;0.10;99.90;;;;;;5018858;28;20460;-51
2021/04/06 05:26:38;;;;;;;6.27;3.07;;;0.20;99.90;;;;;;5018454;28;20479;-49
2021/04/06 05:29:04;;;;;;;4.57;2.87;;;0.20;99.90;;;;;;5017867;28;20479;-51
2021/04/06 05:31:31;;;;;;;7.90;3.20;;;0.20;99.90;;;;;;5018383;28;20469;-48
2021/04/06 05:33:57;;;;;;;8.30;4.27;;;0.30;99.90;;;;;;5018023;28;20502;-54
2021/04/06 05:36:27;;;;;;;6.00;4.27;;;0.30;99.90;;;;;;5018128;28;20475;-54
2021/04/06 05:38:54;;;;;;;5.13;3.43;;;0.30;99.90;;;;;;5018351;28;20454;-53
2021/04/06 05:41:21;;;;;;;8.47;5.70;;;0.40;99.90;;;;;;5017705;28;20504;-54
2021/04/06 05:43:50;;;;;;;10.23;5.90;;;0.30;99.90;;;;;;5018322;28;20522;-51
2021/04/06 05:46:17;;;;;;;14.67;7.50;;;0.40;99.90;;;;;;5017801;28;20460;-51
2021/04/06 05:48:45;;;;;;;15.00;7.60;;;0.40;99.90;;;;;;5018131;28;20464;-52
2021/04/06 05:51:16;;;;;;;13.47;8.80;;;0.30;99.90;;;;;;5018185;28;20511;-54
2021/04/06 05:53:44;;;;;;;18.00;9.60;;;0.40;99.90;;;;;;5018179;28;20531;-53
2021/04/06 05:56:11;;;;;;;17.93;10.40;;;0.40;99.90;;;;;;5017700;28;20439;-55
2021/04/06 05:58:38;;;;;;;16.83;10.03;;;0.50;99.90;;;;;;5018277;28;20472;-55
2021/04/06 06:01:04;;;;;;;18.10;10.70;;;0.50;99.90;;;;;;5017722;28;20784;-55
2021/04/06 06:03:34;;;;;;;16.47;9.97;;;0.60;99.90;;;;;;5012764;28;20776;-57
2021/04/06 06:06:04;;;;;;;17.40;9.40;;;0.60;99.90;;;;;;5015940;28;20508;-59
2021/04/06 06:08:31;;;;;;;13.87;10.20;;;0.70;99.90;;;;;;5016859;28;20479;-59
2021/04/06 06:11:03;;;;;;;27.23;11.07;;;0.60;99.90;;;;;;5017688;28;20475;-57
2021/04/06 06:13:30;;;;;;;18.93;10.93;;;0.70;99.90;;;;;;5018087;28;20553;-57
2021/04/06 06:16:20;;;;;;;18.37;10.90;;;0.80;99.90;;;;;;5017802;28;20450;-54
2021/04/06 06:19:01;;;;;;;25.60;11.10;;;0.80;99.90;;;;;;5017487;28;20464;-54
2021/04/06 06:21:40;;;;;;;17.73;9.77;;;0.80;99.90;;;;;;5018171;28;20893;-59
2021/04/06 06:24:08;;;;;;;20.67;11.10;;;0.70;99.90;;;;;;5017180;28;20537;-59
2021/04/06 06:26:36;;;;;;;21.73;8.90;;;0.70;99.90;;;;;;5013048;28;20473;-60
2021/04/06 06:29:10;;;;;;;14.53;9.03;;;0.90;99.90;;;;;;5016986;28;20469;-60
2021/04/06 06:31:41;;;;;;;23.23;10.03;;;1.20;99.90;;;;;;5016644;28;20563;-60
2021/04/06 06:34:24;;;;;;;17.90;9.23;;;1.40;99.90;;;;;;5017207;28;20666;-59
2021/04/06 06:37:07;;;;;;;13.37;10.17;;;1.40;99.90;;;;;;5014224;28;20479;-60
2021/04/06 06:39:35;;;;;;;20.37;11.73;;;1.40;99.90;;;;;;5017898;28;20459;-58
2021/04/06 06:42:05;;;;;;;28.03;15.20;;;1.40;99.90;;;;;;5016217;28;20471;-59
2021/04/06 06:44:32;;;;;;;22.97;16.27;;;1.30;99.90;;;;;;5017886;28;20456;-59
2021/04/06 06:47:19;;;;;;;27.07;17.73;;;1.30;99.90;;;;;;5016565;28;20464;-59
2021/04/06 06:49:46;;;;;;;28.33;16.83;;;1.20;99.90;;;;;;5017226;28;20495;-59
2021/04/06 06:52:33;;;;;;;28.33;17.97;;;1.20;99.90;;;;;;5017415;28;20468;-54
2021/04/06 06:55:14;;;;;;;19.50;13.93;;;1.10;99.90;;;;;;5016223;28;20496;-59
2021/04/06 06:57:45;;;;;;;21.17;14.23;;;1.10;99.90;;;;;;5015699;28;20474;-58
2021/04/06 07:00:14;;;;;;;21.53;15.43;;;1.10;99.90;;;;;;5015756;28;20463;-58
2021/04/06 07:02:42;;;;;;;11.77;10.17;;;0.90;99.90;;;;;;5014637;28;20478;-59
2021/04/06 07:05:12;;;;;;;10.10;8.70;;;0.80;99.90;;;;;;5007390;28;20468;-54
2021/04/06 07:08:04;;;;;;;9.73;6.60;;;0.60;99.90;;;;;;5016883;28;20521;-54
2021/04/06 07:10:33;;;;;;;7.53;6.17;;;0.50;99.90;;;;;;5011456;28;20472;-54
2021/04/06 07:13:09;;;;;;;8.33;6.37;;;0.60;99.90;;;;;;5016811;28;20499;-56
2021/04/06 07:15:39;;;;;;;10.10;6.40;;;0.80;99.90;;;;;;5017117;28;20472;-59
2021/04/06 07:18:09;;;;;;;14.97;8.70;;;0.90;99.90;;;;;;5009878;28;20468;-56
2021/04/06 07:20:42;;;;;;;14.97;8.77;;;1.00;99.90;;;;;;5017167;28;20464;-58
2021/04/06 07:23:14;;;;;;;10.70;8.80;;;1.00;99.90;;;;;;5013889;28;20460;-58
2021/04/06 07:25:45;;;;;;;13.13;8.97;;;1.00;99.90;;;;;;5016715;28;20464;-59
2021/04/06 07:28:26;;;;;;;11.37;9.43;;;1.00;99.90;;;;;;5016526;28;20567;-60
2021/04/06 07:30:56;;;;;;;15.73;9.03;;;1.10;99.90;;;;;;5016899;28;20460;-60
2021/04/06 07:33:27;;;;;;;15.83;10.50;;;1.30;99.90;;;;;;5017973;28;20470;-58
2021/04/06 07:35:55;;;;;;;18.10;11.03;;;1.50;99.90;;;;;;5019576;28;20551;-59
2021/04/06 07:38:22;;;;;;;15.43;10.20;;;1.60;99.90;;;;;;5020902;28;20476;-60
2021/04/06 07:40:49;;;;;;;12.63;8.33;;;1.60;99.90;;;;;;5019002;28;20464;-58
2021/04/06 07:43:21;;;;;;;13.40;8.60;;;1.50;99.90;;;;;;5021354;28;20522;-60
2021/04/06 07:45:49;;;;;;;14.93;8.50;;;1.50;99.90;;;;;;5020642;28;20876;-60
2021/04/06 07:48:45;;;;;;;16.40;10.00;;;1.60;99.90;;;;;;5020904;28;20566;-59
2021/04/06 07:51:26;;;;;;;15.40;9.80;;;1.60;99.90;;;;;;5020039;28;20464;-60
2021/04/06 07:54:12;;;;;;;14.63;11.00;;;1.60;99.90;;;;;;5019456;28;20875;-60
2021/04/06 07:56:55;;;;;;;14.97;11.00;;;1.50;99.90;;;;;;5010910;28;20463;-59
2021/04/06 07:59:51;;;;;;;19.63;11.70;;;1.50;99.90;;;;;;5019092;28;20468;-59
2021/04/06 08:02:32;;;;;;;19.10;11.90;;;1.50;99.90;;;;;;5019129;28;20508;-64
2021/04/06 08:05:01;;;;;;;18.90;11.77;;;1.60;99.90;;;;;;5010559;28;20503;-60
2021/04/06 08:07:33;;;;;;;18.93;11.93;;;1.90;1.00;;;;;;5012684;28;20491;-60
2021/04/06 08:10:40;;;;;;;18.00;12.20;;;2.50;1.00;;;;;;5018501;28;20471;-60
2021/04/06 08:13:09;;;;;;;18.83;12.20;;;3.10;1.00;;;;;;5016146;28;20877;-58
2021/04/06 08:15:37;;;;;;;16.10;11.63;;;2.90;99.90;;;;;;5015067;28;20468;-60
2021/04/06 08:18:05;;;;;;;19.70;14.63;;;2.80;1.00;;;;;;5019363;28;20471;-60
2021/04/06 08:20:44;;;;;;;22.83;14.83;;;2.80;99.90;;;;;;5019205;28;20467;-61
2021/04/06 08:23:32;;;;;;;17.43;14.70;;;3.00;99.90;;;;;;5015528;28;20495;-61
2021/04/06 08:26:01;;;;;;;18.10;15.20;;;2.80;98.00;;;;;;5013489;28;20483;-62
2021/04/06 08:28:41;;;;;;;24.07;14.60;;;2.70;99.90;;;;;;5019075;28;20761;-62
2021/04/06 08:31:34;;;;;;;17.07;13.00;;;2.40;1.00;;;;;;5019504;28;20467;-61
2021/04/06 08:34:29;;;;;;;15.77;11.40;;;2.40;1.00;;;;;;5018195;28;20937;-60
2021/04/06 08:37:07;;;;;;;17.27;10.63;;;2.30;1.00;;;;;;5017274;28;20475;-62
2021/04/06 08:39:35;;;;;;;14.10;10.10;;;2.00;1.00;;;;;;5012191;28;20483;-61
2021/04/06 08:42:03;;;;;;;11.60;8.13;;;2.40;1.00;;;;;;5017945;28;20781;-61
2021/04/06 08:44:30;;;;;;;17.23;7.10;;;2.60;1.00;;;;;;5017488;28;20464;-60
2021/04/06 08:46:57;;;;;;;13.47;7.20;;;3.10;1.00;;;;;;5019230;28;20464;-60
2021/04/06 08:49:25;;;;;;;15.30;8.73;;;3.10;1.00;;;;;;5019003;28;20468;-60
2021/04/06 08:51:54;;;;;;;13.33;8.00;;;3.50;1.00;;;;;;5016505;28;20473;-61
2021/04/06 08:54:23;;;;;;;12.03;7.97;;;3.50;1.00;;;;;;5017392;28;20518;-60
2021/04/06 08:56:52;;;;;;;10.40;7.67;;;3.30;1.00;;;;;;5018778;28;20468;-60
2021/04/06 08:59:25;;;;;;;12.87;8.70;;;3.10;1.00;;;;;;5019128;28;20530;-59
2021/04/06 09:01:58;;;;;;;11.70;7.63;;;3.40;1.00;;;;;;5018498;28;20463;-59
2021/04/06 09:04:26;;;;;;;13.20;8.17;;;3.40;1.00;;;;;;5003100;28;20465;-57
2021/04/06 09:06:53;;;;;;;12.73;7.73;;;3.30;1.00;;;;;;5003162;28;21006;-58
2021/04/06 09:09:23;;;;;;;16.57;7.60;;;3.40;1.00;;;;;;5015902;28;20527;-56
2021/04/06 09:11:52;;;;;;;13.00;7.97;;;3.70;1.00;;;;;;5018470;28;20542;-58
2021/04/06 09:14:20;;;;;;;10.13;7.20;;;3.50;99.90;;;;;;5017260;28;20488;-56
2021/04/06 09:16:47;;;;;;;15.10;5.37;;;3.00;99.90;;;;;;5017752;28;20519;-53
2021/04/06 09:19:15;;;;;;;12.10;6.30;;;2.90;99.90;;;;;;5015011;28;20468;-57
2021/04/06 09:21:46;;;;;;;14.83;6.03;;;2.80;1.00;;;;;;5012632;28;20455;-52
2021/04/06 09:24:14;;;;;;;8.97;6.07;;;3.10;99.90;;;;;;5017719;28;20459;-56
2021/04/06 09:26:42;;;;;;;16.40;5.93;;;3.40;1.00;;;;;;5017993;28;20467;-55
2021/04/06 09:29:13;;;;;;;7.80;4.70;;;3.30;1.00;;;;;;5017905;28;20944;-56
2021/04/06 09:31:45;;;;;;;11.53;5.87;;;3.00;1.00;;;;;;5018718;28;20507;-52
2021/04/06 09:34:14;;;;;;;8.17;5.57;;;3.10;1.00;;;;;;5017754;28;20496;-50
2021/04/06 09:36:44;;;;;;;11.10;5.30;;;3.70;1.00;;;;;;5014956;28;20519;-51
2021/04/06 09:39:13;;;;;;;9.93;5.50;;;4.00;99.90;;;;;;5015338;28;20479;-50
2021/04/06 09:41:48;;;;;;;9.40;4.70;;;3.90;83.40;;;;;;5014066;28;20558;-51
2021/04/06 09:44:17;;;;;;;37.10;6.97;;;3.70;97.30;;;;;;5020601;28;20514;-54
2021/04/06 09:46:46;;;;;;;13.30;5.00;;;3.70;99.90;;;;;;5009297;28;20464;-52
2021/04/06 09:49:15;;;;;;;10.70;5.63;;;3.60;96.10;;;;;;5021164;28;20464;-49
2021/04/06 09:51:46;;;;;;;7.70;5.20;;;3.50;99.90;;;;;;5014592;28;20467;-46
2021/04/06 09:54:14;;;;;;;7.07;5.17;;;3.60;89.60;;;;;;5012993;28;20948;-47
2021/04/06 09:56:41;;;;;;;12.03;5.87;;;4.10;99.90;;;;;;5016040;28;20468;-47
2021/04/06 09:59:09;;;;;;;7.17;4.47;;;4.50;96.80;;;;;;5017510;28;20475;-50
2021/04/06 10:01:37;;;;;;;10.73;4.73;;;4.90;1.00;;;;;;5017806;28;20475;-46
2021/04/06 10:04:07;;;;;;;8.07;4.87;;;4.60;1.00;;;;;;5007729;28;20468;-52
2021/04/06 10:06:40;;;;;;;8.17;4.30;;;4.20;1.00;;;;;;5017513;28;20485;-50
2021/04/06 10:09:21;;;;;;;7.10;4.57;;;4.40;1.00;;;;;;5017865;28;20563;-56
2021/04/06 10:11:48;;;;;;;4.57;3.87;;;5.10;1.00;;;;;;5021228;28;20463;-60
2021/04/06 10:14:15;;;;;;;9.93;3.43;;;5.40;1.00;;;;;;5017109;28;20499;-61
2021/04/06 10:16:42;;;;;;;5.87;3.30;;;5.80;1.00;;;;;;5020931;28;20475;-59
2021/04/06 10:19:21;;;;;;;8.47;4.03;;;5.80;1.00;;;;;;5018128;28;20517;-59
2021/04/06 10:22:03;;;;;;;7.03;3.53;;;5.30;1.00;;;;;;5015995;28;20438;-59
2021/04/06 10:24:31;;;;;;;5.27;3.10;;;4.60;1.00;;;;;;5023806;28;20463;-58
2021/04/06 10:27:11;;;;;;;5.40;3.10;;;4.10;1.00;;;;;;5018511;28;20464;-59
2021/04/06 10:29:38;;;;;;;7.53;3.87;;;3.80;1.00;;;;;;5016542;28;20459;-59
2021/04/06 10:32:07;;;;;;;8.80;3.83;;;4.10;1.00;;;;;;5016819;28;20464;-60
2021/04/06 10:34:34;;;;;;;6.37;3.90;;;4.90;1.00;;;;;;5019865;28;20491;-62
2021/04/06 10:37:05;;;;;;;9.30;3.93;;;5.50;1.00;;;;;;5017705;28;20464;-61
2021/04/06 10:39:34;;;;;;;8.33;3.33;;;5.20;1.00;;;;;;5016557;28;20491;-62
2021/04/06 10:42:01;;;;;;;5.50;3.37;;;4.50;1.00;;;;;;5013645;28;20897;-63
2021/04/06 10:44:28;;;;;;;4.40;3.10;;;3.70;1.00;;;;;;5015536;28;20431;-64
2021/04/06 10:46:56;;;;;;;20.90;5.63;;;3.00;99.90;;;;;;5008656;28;20551;-63
2021/04/06 10:49:26;;;;;;;6.60;3.87;;;3.00;97.30;;;;;;5014739;28;20551;-62
2021/04/06 10:51:57;;;;;;;8.70;5.20;;;3.60;99.90;;;;;;5015608;28;20471;-61
2021/04/06 10:54:25;;;;;;;13.83;4.77;;;4.00;1.00;;;;;;5014204;28;20500;-61
2021/04/06 10:56:55;;;;;;;27.03;6.40;;;4.20;99.90;;;;;;5017635;28;20464;-61
2021/04/06 10:59:30;;;;;;;18.33;5.20;;;4.80;99.90;;;;;;5017681;28;20490;-61
2021/04/06 11:01:59;;;;;;;5.10;3.93;;;5.10;48.20;;;;;;5016228;28;20721;-60
2021/04/06 11:04:28;;;;;;;5.00;4.00;;;4.70;1.00;;;;;;5007185;28;20546;-55
2021/04/06 11:06:57;;;;;;;5.23;3.40;;;4.60;1.00;;;;;;5017559;28;20475;-59
2021/04/06 11:09:27;;;;;;;4.23;3.83;;;5.00;1.00;;;;;;5021566;28;20555;-60
2021/04/06 11:11:55;;;;;;;10.20;3.93;;;5.30;1.00;;;;;;5021226;28;20471;-59
2021/04/06 11:14:26;;;;;;;7.83;3.50;;;5.10;1.00;;;;;;5016921;28;20553;-57
2021/04/06 11:16:53;;;;;;;5.90;3.47;;;4.80;1.00;;;;;;5024032;28;20959;-60
2021/04/06 11:19:25;;;;;;;5.50;3.60;;;5.30;63.10;;;;;;5021106;28;20464;-60
2021/04/06 11:21:53;;;;;;;22.23;4.77;;;5.20;1.00;;;;;;5022697;28;20460;-61
2021/04/06 11:24:22;;;;;;;8.43;4.57;;;4.90;1.00;;;;;;5019483;28;20464;-61
2021/04/06 11:26:52;;;;;;;5.73;4.20;;;4.90;1.00;;;;;;5022542;28;20495;-61
2021/04/06 11:29:21;;;;;;;7.10;4.07;;;4.90;1.00;;;;;;5022296;28;20519;-61
2021/04/06 11:31:50;;;;;;;13.93;4.60;;;5.00;1.00;;;;;;5021864;28;20463;-62
2021/04/06 11:34:17;;;;;;;22.83;8.50;;;5.20;1.00;;;;;;5023314;28;20546;-62
2021/04/06 11:36:45;;;;;;;19.23;4.87;;;5.70;1.00;;;;;;5015256;28;20551;-63
2021/04/06 11:39:13;;;;;;;11.73;4.97;;;6.30;1.00;;;;;;5025132;28;20458;-63
2021/04/06 11:41:40;;;;;;;6.70;4.40;;;6.00;1.00;;;;;;5009345;28;20780;-63
2021/04/06 11:44:11;;;;;;;6.23;3.73;;;5.30;1.00;;;;;;5017196;28;20877;-63
2021/04/06 11:46:38;;;;;;;7.97;3.37;;;4.70;1.00;;;;;;5016535;28;20570;-63
2021/04/06 11:49:06;;;;;;;6.07;3.07;;;4.80;1.00;;;;;;5022791;28;20470;-63
2021/04/06 11:51:33;;;;;;;6.33;2.97;;;5.30;1.00;;;;;;5018252;28;20791;-65
2021/04/06 11:54:00;;;;;;;12.47;3.93;;;5.70;1.00;;;;;;5019037;28;20495;-65
2021/04/06 11:56:29;;;;;;;17.43;3.80;;;6.40;1.00;;;;;;5018650;28;20468;-65
2021/04/06 11:58:56;;;;;;;10.87;4.00;;;6.60;1.00;;;;;;5021469;28;20523;-64
2021/04/06 12:01:24;;;;;;;6.40;3.70;;;6.80;1.00;;;;;;5018040;28;20467;-64
2021/04/06 12:03:50;;;;;;;11.60;3.63;;;6.70;1.00;;;;;;5010151;28;20467;-64
2021/04/06 12:06:17;;;;;;;4.13;2.60;;;6.70;1.00;;;;;;5013885;28;20824;-64
2021/04/06 12:08:44;;;;;;;5.00;3.20;;;6.10;1.00;;;;;;5019542;28;20914;-64
2021/04/06 12:11:11;;;;;;;6.17;3.00;;;5.90;1.00;;;;;;5021900;28;20463;-64
2021/04/06 12:13:38;;;;;;;3.60;2.50;;;5.30;1.00;;;;;;5018360;28;20498;-64
2021/04/06 12:16:07;;;;;;;6.73;3.10;;;4.80;1.00;;;;;;5022454;28;20472;-65
2021/04/06 12:18:34;;;;;;;7.73;3.00;;;4.30;1.00;;;;;;5018843;28;20468;-66
2021/04/06 12:21:01;;;;;;;7.27;2.40;;;4.00;1.00;;;;;;5018801;28;20471;-65
2021/04/06 12:23:29;;;;;;;10.33;2.77;;;3.60;1.00;;;;;;5018801;28;20460;-65
2021/04/06 12:25:57;;;;;;;5.20;3.33;;;3.10;1.00;;;;;;5019439;28;20757;-65
2021/04/06 12:28:24;;;;;;;4.83;2.30;;;2.90;91.90;;;;;;5019589;28;20472;-65
2021/04/06 12:30:53;;;;;;;4.57;2.43;;;3.00;99.90;;;;;;5019810;28;20753;-65
2021/04/06 12:33:20;;;;;;;5.13;2.10;;;2.90;99.90;;;;;;5019642;28;20518;-64
2021/04/06 12:35:47;;;;;;;3.00;2.13;;;2.80;99.90;;;;;;5021110;28;20751;-64
2021/04/06 12:38:14;;;;;;;3.70;3.13;;;2.80;1.00;;;;;;5017472;28;20464;-64
2021/04/06 12:40:40;;;;;;;3.90;2.67;;;2.80;1.00;;;;;;5019228;28;20464;-64
2021/04/06 12:43:07;;;;;;;5.43;2.53;;;2.70;99.90;;;;;;5016630;28;20788;-63
2021/04/06 12:45:34;;;;;;;5.70;3.67;;;2.50;1.00;;;;;;5022091;28;20469;-65
2021/04/06 12:48:01;;;;;;;6.70;2.90;;;2.10;70.80;;;;;;5009895;28;20468;-66
2021/04/06 12:50:27;;;;;;;6.83;3.00;;;1.70;55.50;;;;;;5020336;28;20912;-65
2021/04/06 12:52:55;;;;;;;3.00;2.47;;;1.70;1.00;;;;;;5018907;28;20473;-66
2021/04/06 12:55:22;;;;;;;2.73;2.53;;;1.70;1.00;;;;;;5018766;28;20487;-64
2021/04/06 12:57:50;;;;;;;3.03;2.20;;;1.80;99.90;;;;;;5021800;28;20790;-64
2021/04/06 13:00:18;;;;;;;2.90;2.23;;;2.00;99.90;;;;;;5018725;28;20472;-63
2021/04/06 13:02:45;;;;;;;3.80;2.47;;;2.00;99.90;;;;;;5017882;28;20476;-64
2021/04/06 13:05:15;;;;;;;3.27;2.40;;;2.10;99.90;;;;;;5013341;28;20495;-64
2021/04/06 13:07:43;;;;;;;2.77;2.33;;;2.30;99.90;;;;;;5018377;28;20476;-64